Time,TemperatureF,DewpointF,PressureIn,WindDirection,WindDirectionDegrees,WindSpeedMPH,WindSpeedGustMPH,Humidity,HourlyPrecipIn,Conditions,Clouds,dailyrainin,SoftwareType,DateUTC
2013-01-19 00:04:00,60.8,49.1,30.15,SE,135,0.0,2.0,65,0.00,,,0.00,WUHU216HW,2013-01-18 21:04:00,
2013-01-19 00:09:00,60.7,48.9,30.15,ESE,113,1.1,1.8,65,0.00,,,0.00,WUHU216HW,2013-01-18 21:09:00,
2013-01-19 00:14:00,60.7,49.3,30.14,SE,135,1.8,2.0,66,0.00,,,0.00,WUHU216HW,2013-01-18 21:14:00,
2013-01-19 00:19:00,60.8,49.5,30.14,SE,135,2.2,2.5,66,0.00,,,0.00,WUHU216HW,2013-01-18 21:19:00,
2013-01-19 00:24:00,60.8,49.5,30.15,SE,135,1.3,2.5,66,0.00,,,0.00,WUHU216HW,2013-01-18 21:24:00,
2013-01-19 00:29:00,60.7,49.3,30.15,SE,135,0.9,1.8,66,0.00,,,0.00,WUHU216HW,2013-01-18 21:29:00,
2013-01-19 00:34:00,60.5,49.2,30.15,SE,135,0.4,1.3,66,0.00,,,0.00,WUHU216HW,2013-01-18 21:34:00,
2013-01-19 00:39:00,60.5,49.5,30.14,SE,135,0.4,1.1,67,0.00,,,0.00,WUHU216HW,2013-01-18 21:39:00,
2013-01-19 00:44:00,60.5,49.5,30.14,SE,135,0.2,1.1,67,0.00,,,0.00,WUHU216HW,2013-01-18 21:44:00,
2013-01-19 00:49:00,60.5,49.5,30.14,SE,135,0.9,1.8,67,0.00,,,0.00,WUHU216HW,2013-01-18 21:49:00,
2013-01-19 00:54:00,60.3,49.3,30.14,SSE,158,1.3,2.0,67,0.00,,,0.00,WUHU216HW,2013-01-18 21:54:00,
2013-01-19 00:59:00,60.3,49.3,30.14,SE,135,1.3,2.0,67,0.00,,,0.00,WUHU216HW,2013-01-18 21:59:00,
2013-01-19 01:04:00,60.1,49.6,30.14,SE,135,0.4,1.8,68,0.00,,,0.00,WUHU216HW,2013-01-18 22:04:00,
2013-01-19 01:09:00,60.1,49.6,30.14,SE,135,2.2,2.7,68,0.00,,,0.00,WUHU216HW,2013-01-18 22:09:00,
2013-01-19 01:15:00,60.3,49.8,30.13,SE,135,2.2,4.0,68,0.00,,,0.00,WUHU216HW,2013-01-18 22:15:00,
2013-01-19 01:20:00,60.1,49.6,30.13,ESE,113,1.8,4.0,68,0.00,,,0.00,WUHU216HW,2013-01-18 22:20:00,
2013-01-19 01:25:00,60.1,50.0,30.13,SE,135,1.8,2.2,69,0.00,,,0.00,WUHU216HW,2013-01-18 22:25:00,
2013-01-19 01:30:00,60.1,50.0,30.13,SE,135,1.6,2.2,69,0.00,,,0.00,WUHU216HW,2013-01-18 22:30:00,
2013-01-19 01:35:00,60.3,50.1,30.13,SE,135,1.6,2.5,69,0.00,,,0.00,WUHU216HW,2013-01-18 22:35:00,
2013-01-19 01:40:00,60.3,50.1,30.13,SE,135,1.1,2.5,69,0.00,,,0.00,WUHU216HW,2013-01-18 22:40:00,
2013-01-19 01:45:00,60.3,50.1,30.13,SSE,158,2.5,2.5,69,0.00,,,0.00,WUHU216HW,2013-01-18 22:45:00,
2013-01-19 01:50:00,60.3,50.1,30.13,ESE,113,1.1,2.5,69,0.00,,,0.00,WUHU216HW,2013-01-18 22:50:00,
2013-01-19 01:55:00,60.1,50.4,30.13,East,90,1.8,2.5,70,0.00,,,0.00,WUHU216HW,2013-01-18 22:55:00,
2013-01-19 02:00:00,60.1,50.4,30.12,SSE,158,1.8,2.2,70,0.00,,,0.00,WUHU216HW,2013-01-18 23:00:00,
2013-01-19 02:05:00,60.3,50.6,30.12,SE,135,1.6,2.5,70,0.00,,,0.00,WUHU216HW,2013-01-18 23:05:00,
2013-01-19 02:10:00,60.3,50.6,30.12,SE,135,1.1,2.7,70,0.00,,,0.00,WUHU216HW,2013-01-18 23:10:00,
2013-01-19 02:15:00,60.3,50.6,30.12,ESE,113,0.0,2.7,70,0.00,,,0.00,WUHU216HW,2013-01-18 23:15:00,
2013-01-19 02:20:00,60.1,50.4,30.13,ESE,113,0.0,1.8,70,0.00,,,0.00,WUHU216HW,2013-01-18 23:20:00,
2013-01-19 02:25:00,60.1,50.4,30.13,ESE,113,0.0,0.9,70,0.00,,,0.00,WUHU216HW,2013-01-18 23:25:00,
2013-01-19 02:30:00,60.1,50.4,30.13,ESE,113,0.0,0.7,70,0.00,,,0.00,WUHU216HW,2013-01-18 23:30:00,
2013-01-19 02:35:00,59.9,50.2,30.13,ESE,113,1.1,1.1,70,0.00,,,0.00,WUHU216HW,2013-01-18 23:35:00,
2013-01-19 02:40:00,59.8,50.0,30.13,WNW,293,1.1,1.3,70,0.00,,,0.00,WUHU216HW,2013-01-18 23:40:00,
2013-01-19 02:45:00,59.6,49.9,30.13,WNW,293,0.9,1.8,70,0.00,,,0.00,WUHU216HW,2013-01-18 23:45:00,
2013-01-19 02:50:00,59.4,49.7,30.13,WNW,293,2.0,2.0,70,0.00,,,0.00,WUHU216HW,2013-01-18 23:50:00,
2013-01-19 02:55:00,58.7,49.3,30.13,WNW,293,1.8,2.0,71,0.00,,,0.00,WUHU216HW,2013-01-18 23:55:00,
2013-01-19 03:00:00,58.1,48.8,30.13,WNW,293,2.0,2.0,71,0.00,,,0.00,WUHU216HW,2013-01-19 00:00:00,
2013-01-19 03:05:00,57.6,48.6,30.13,WNW,293,1.8,2.0,72,0.00,,,0.00,WUHU216HW,2013-01-19 00:05:00,
2013-01-19 03:10:00,57.4,48.4,30.13,WNW,293,2.5,2.5,72,0.00,,,0.00,WUHU216HW,2013-01-19 00:10:00,
2013-01-19 03:15:00,57.4,48.4,30.13,WNW,293,1.3,2.5,72,0.00,,,0.00,WUHU216HW,2013-01-19 00:15:00,
2013-01-19 03:20:00,57.4,48.4,30.13,West,270,1.1,2.5,72,0.00,,,0.00,WUHU216HW,2013-01-19 00:20:00,
2013-01-19 03:25:00,57.4,48.4,30.13,West,270,1.8,2.0,72,0.00,,,0.00,WUHU216HW,2013-01-19 00:25:00,
2013-01-19 03:30:00,57.6,48.6,30.13,WNW,293,0.4,1.8,72,0.00,,,0.00,WUHU216HW,2013-01-19 00:30:00,
2013-01-19 03:35:00,57.4,48.8,30.13,WNW,293,1.3,1.8,73,0.00,,,0.00,WUHU216HW,2013-01-19 00:35:00,
2013-01-19 03:40:00,57.4,48.8,30.13,NW,315,0.7,1.6,73,0.00,,,0.00,WUHU216HW,2013-01-19 00:40:00,
2013-01-19 03:45:00,57.2,48.6,30.13,WNW,293,1.6,1.6,73,0.00,,,0.00,WUHU216HW,2013-01-19 00:45:00,
2013-01-19 03:50:00,56.9,48.6,30.13,NW,315,1.1,1.6,74,0.00,,,0.00,WUHU216HW,2013-01-19 00:50:00,
2013-01-19 03:55:00,56.9,48.6,30.14,WNW,293,1.6,1.8,74,0.00,,,0.00,WUHU216HW,2013-01-19 00:55:00,
2013-01-19 04:00:00,56.7,48.4,30.14,WNW,293,1.8,1.8,74,0.00,,,0.00,WUHU216HW,2013-01-19 01:00:00,
2013-01-19 04:05:00,56.7,48.4,30.14,WNW,293,2.5,2.5,74,0.00,,,0.00,WUHU216HW,2013-01-19 01:05:00,
2013-01-19 04:10:00,56.7,48.4,30.14,NW,315,1.8,2.5,74,0.00,,,0.00,WUHU216HW,2013-01-19 01:10:00,
2013-01-19 04:15:00,56.5,48.2,30.14,WNW,293,1.3,2.5,74,0.00,,,0.00,WUHU216HW,2013-01-19 01:15:00,
2013-01-19 04:20:00,56.7,48.4,30.14,NW,315,1.1,2.5,74,0.00,,,0.00,WUHU216HW,2013-01-19 01:20:00,
2013-01-19 04:25:00,56.5,48.2,30.14,WNW,293,1.3,1.8,74,0.00,,,0.00,WUHU216HW,2013-01-19 01:25:00,
2013-01-19 04:30:00,56.7,48.4,30.15,West,270,1.3,1.8,74,0.00,,,0.00,WUHU216HW,2013-01-19 01:30:00,
2013-01-19 04:35:00,56.7,48.4,30.15,WNW,293,0.4,1.8,74,0.00,,,0.00,WUHU216HW,2013-01-19 01:35:00,
2013-01-19 04:40:00,56.7,48.1,30.15,WNW,293,0.7,1.1,73,0.00,,,0.00,WUHU216HW,2013-01-19 01:40:00,
2013-01-19 04:45:00,56.7,48.1,30.15,WNW,293,0.4,0.7,73,0.00,,,0.00,WUHU216HW,2013-01-19 01:45:00,
2013-01-19 04:50:00,56.9,48.2,30.15,WNW,293,0.2,0.7,73,0.00,,,0.00,WUHU216HW,2013-01-19 01:50:00,
2013-01-19 04:55:00,56.9,48.2,30.15,WNW,293,0.2,0.7,73,0.00,,,0.00,WUHU216HW,2013-01-19 01:55:00,
2013-01-19 05:00:00,56.9,48.2,30.15,WNW,293,0.9,0.9,73,0.00,,,0.00,WUHU216HW,2013-01-19 02:00:00,
2013-01-19 05:05:00,56.9,48.2,30.15,West,270,0.4,1.1,73,0.00,,,0.00,WUHU216HW,2013-01-19 02:05:00,
2013-01-19 05:10:00,57.1,48.4,30.15,West,270,0.4,1.1,73,0.00,,,0.00,WUHU216HW,2013-01-19 02:10:00,
2013-01-19 05:15:00,56.9,48.2,30.15,WNW,293,0.9,0.9,73,0.00,,,0.00,WUHU216HW,2013-01-19 02:15:00,
2013-01-19 05:20:00,56.7,48.1,30.16,WNW,293,2.0,2.0,73,0.00,,,0.00,WUHU216HW,2013-01-19 02:20:00,
2013-01-19 05:25:00,56.7,48.1,30.16,West,270,1.3,2.0,73,0.00,,,0.00,WUHU216HW,2013-01-19 02:25:00,
2013-01-19 05:30:00,56.7,48.1,30.16,WNW,293,0.4,1.8,73,0.00,,,0.00,WUHU216HW,2013-01-19 02:30:00,
2013-01-19 05:35:00,56.5,48.0,30.16,WNW,293,1.6,1.6,73,0.00,,,0.00,WUHU216HW,2013-01-19 02:35:00,
2013-01-19 05:40:00,56.5,48.0,30.16,WNW,293,0.0,1.8,73,0.00,,,0.00,WUHU216HW,2013-01-19 02:40:00,
2013-01-19 05:45:00,56.3,48.2,30.16,WNW,293,1.1,1.8,74,0.00,,,0.00,WUHU216HW,2013-01-19 02:45:00,
2013-01-19 05:50:00,56.5,48.2,30.17,WNW,293,0.0,1.3,74,0.00,,,0.00,WUHU216HW,2013-01-19 02:50:00,
2013-01-19 05:55:00,56.5,48.2,30.16,WNW,293,0.2,1.1,74,0.00,,,0.00,WUHU216HW,2013-01-19 02:55:00,
2013-01-19 06:00:00,56.5,48.2,30.16,WNW,293,0.0,0.9,74,0.00,,,0.00,WUHU216HW,2013-01-19 03:00:00,
2013-01-19 06:05:00,56.5,48.2,30.16,WNW,293,0.0,0.4,74,0.00,,,0.00,WUHU216HW,2013-01-19 03:05:00,
2013-01-19 06:10:00,56.5,48.2,30.17,WNW,293,0.4,0.7,74,0.00,,,0.00,WUHU216HW,2013-01-19 03:10:00,
2013-01-19 06:15:00,56.5,48.2,30.16,WNW,293,0.0,0.7,74,0.00,,,0.00,WUHU216HW,2013-01-19 03:15:00,
2013-01-19 06:20:00,56.7,48.4,30.17,WNW,293,0.4,0.4,74,0.00,,,0.00,WUHU216HW,2013-01-19 03:20:00,
2013-01-19 06:25:00,56.7,48.4,30.17,WNW,293,0.4,1.1,74,0.00,,,0.00,WUHU216HW,2013-01-19 03:25:00,
2013-01-19 06:30:00,56.7,48.4,30.17,NW,315,1.3,1.6,74,0.00,,,0.00,WUHU216HW,2013-01-19 03:30:00,
2013-01-19 06:35:00,56.7,48.4,30.17,NW,315,0.4,1.6,74,0.00,,,0.00,WUHU216HW,2013-01-19 03:35:00,
2013-01-19 06:40:00,56.9,48.6,30.18,WNW,293,0.0,1.3,74,0.00,,,0.00,WUHU216HW,2013-01-19 03:40:00,
2013-01-19 06:45:00,56.9,48.6,30.18,WNW,293,0.0,0.9,74,0.00,,,0.00,WUHU216HW,2013-01-19 03:45:00,
2013-01-19 06:50:00,56.9,48.6,30.18,WNW,293,0.0,0.0,74,0.00,,,0.00,WUHU216HW,2013-01-19 03:50:00,
2013-01-19 06:55:00,56.9,48.6,30.19,WNW,293,1.1,1.1,74,0.00,,,0.00,WUHU216HW,2013-01-19 03:55:00,
2013-01-19 07:00:00,56.9,49.0,30.19,WNW,293,1.8,1.8,75,0.00,,,0.00,WUHU216HW,2013-01-19 04:00:00,
2013-01-19 07:05:00,56.9,49.0,30.19,WNW,293,1.1,1.8,75,0.00,,,0.00,WUHU216HW,2013-01-19 04:05:00,
2013-01-19 07:10:00,57.2,49.3,30.19,WNW,293,1.1,1.8,75,0.00,,,0.00,WUHU216HW,2013-01-19 04:10:00,
2013-01-19 07:15:00,57.2,49.3,30.19,NW,315,0.9,1.6,75,0.00,,,0.00,WUHU216HW,2013-01-19 04:15:00,
2013-01-19 07:20:00,57.2,49.3,30.19,NW,315,0.7,1.1,75,0.00,,,0.00,WUHU216HW,2013-01-19 04:20:00,
2013-01-19 07:25:00,57.6,49.7,30.20,WNW,293,0.0,1.1,75,0.00,,,0.00,WUHU216HW,2013-01-19 04:25:00,
2013-01-19 07:30:00,57.8,49.9,30.20,WNW,293,0.0,0.9,75,0.00,,,0.00,WUHU216HW,2013-01-19 04:30:00,
2013-01-19 07:35:00,58.0,49.7,30.20,ENE,68,0.0,0.9,74,0.00,,,0.00,WUHU216HW,2013-01-19 04:35:00,
2013-01-19 07:40:00,58.3,50.0,30.20,ENE,68,0.0,0.9,74,0.00,,,0.00,WUHU216HW,2013-01-19 04:40:00,
2013-01-19 07:45:00,58.7,50.4,30.20,ENE,68,0.0,0.0,74,0.00,,,0.00,WUHU216HW,2013-01-19 04:45:00,
2013-01-19 07:50:00,59.0,50.8,30.20,ENE,68,0.0,0.0,74,0.00,,,0.00,WUHU216HW,2013-01-19 04:50:00,
2013-01-19 07:55:00,59.4,51.1,30.20,ENE,68,0.0,0.0,74,0.00,,,0.00,WUHU216HW,2013-01-19 04:55:00,
2013-01-19 08:01:00,59.8,51.1,30.20,ENE,68,0.0,0.0,73,0.00,,,0.00,WUHU216HW,2013-01-19 05:01:00,
2013-01-19 08:02:00,59.9,51.3,30.21,ENE,68,0.0,0.0,73,0.00,,,0.00,WUHU216HW,2013-01-19 05:02:00,
2013-01-19 08:03:00,60.1,51.5,30.20,ENE,68,0.0,0.0,73,0.00,,,0.00,WUHU216HW,2013-01-19 05:03:00,
2013-01-19 08:08:00,60.5,51.8,30.21,ENE,68,0.0,0.0,73,0.00,,,0.00,WUHU216HW,2013-01-19 05:08:00,
2013-01-19 08:13:00,61.0,52.4,30.21,ENE,68,0.0,0.0,73,0.00,,,0.00,WUHU216HW,2013-01-19 05:13:00,
2013-01-19 08:18:00,61.6,52.5,30.21,ENE,68,0.0,0.2,72,0.00,,,0.00,WUHU216HW,2013-01-19 05:18:00,
2013-01-19 08:23:00,61.9,52.8,30.21,ESE,113,1.1,2.7,72,0.00,,,0.00,WUHU216HW,2013-01-19 05:23:00,
2013-01-19 08:28:00,62.3,53.1,30.21,SE,135,1.8,2.9,72,0.00,,,0.00,WUHU216HW,2013-01-19 05:28:00,
2013-01-19 08:33:00,63.0,53.5,30.22,SE,135,1.8,2.9,71,0.00,,,0.00,WUHU216HW,2013-01-19 05:33:00,
2013-01-19 08:38:00,63.2,53.3,30.21,SE,135,3.6,3.6,70,0.00,,,0.00,WUHU216HW,2013-01-19 05:38:00,
2013-01-19 08:43:00,63.9,52.8,30.21,SE,135,3.1,4.0,67,0.00,,,0.00,WUHU216HW,2013-01-19 05:43:00,
2013-01-19 08:48:00,64.3,52.2,30.22,SE,135,3.4,5.1,65,0.00,,,0.00,WUHU216HW,2013-01-19 05:48:00,
2013-01-19 08:53:00,64.6,51.7,30.22,SE,135,3.4,5.4,63,0.00,,,0.00,WUHU216HW,2013-01-19 05:53:00,
2013-01-19 08:58:00,65.0,51.6,30.22,SSE,158,4.3,5.4,62,0.00,,,0.00,WUHU216HW,2013-01-19 05:58:00,
2013-01-19 09:03:00,65.2,51.8,30.22,SSE,158,3.6,5.1,62,0.00,,,0.00,WUHU216HW,2013-01-19 06:03:00,
2013-01-19 09:08:00,65.3,51.9,30.22,SE,135,4.7,5.8,62,0.00,,,0.00,WUHU216HW,2013-01-19 06:08:00,
2013-01-19 09:13:00,65.5,51.8,30.22,SE,135,3.6,5.8,61,0.00,,,0.00,WUHU216HW,2013-01-19 06:13:00,
2013-01-19 09:18:00,65.7,51.9,30.22,SE,135,5.8,5.8,61,0.00,,,0.00,WUHU216HW,2013-01-19 06:18:00,
2013-01-19 09:23:00,66.1,51.8,30.22,SE,135,4.7,5.8,60,0.00,,,0.00,WUHU216HW,2013-01-19 06:23:00,
2013-01-19 09:28:00,66.2,52.0,30.21,ESE,113,3.4,5.8,60,0.00,,,0.00,WUHU216HW,2013-01-19 06:28:00,
2013-01-19 09:33:00,66.6,52.4,30.21,SE,135,6.7,6.7,60,0.00,,,0.00,WUHU216HW,2013-01-19 06:33:00,
2013-01-19 09:38:00,66.8,51.0,30.21,ESE,113,5.4,6.7,57,0.00,,,0.00,WUHU216HW,2013-01-19 06:38:00,
2013-01-19 09:43:00,67.0,51.2,30.21,SE,135,4.0,6.7,57,0.00,,,0.00,WUHU216HW,2013-01-19 06:43:00,
2013-01-19 09:48:00,67.0,51.7,30.21,ESE,113,5.1,6.5,58,0.00,,,0.00,WUHU216HW,2013-01-19 06:48:00,
2013-01-19 09:53:00,67.0,51.7,30.21,SE,135,2.9,6.0,58,0.00,,,0.00,WUHU216HW,2013-01-19 06:53:00,
2013-01-19 09:58:00,67.0,51.2,30.21,ESE,113,4.9,5.8,57,0.00,,,0.00,WUHU216HW,2013-01-19 06:58:00,
2013-01-19 10:03:00,67.0,50.8,30.21,ESE,113,4.9,5.8,56,0.00,,,0.00,WUHU216HW,2013-01-19 07:03:00,
2013-01-19 10:08:00,67.1,50.4,30.20,SE,135,7.2,7.2,55,0.00,,,0.00,WUHU216HW,2013-01-19 07:08:00,
2013-01-19 10:13:00,67.1,50.9,30.20,ENE,68,3.4,7.2,56,0.00,,,0.00,WUHU216HW,2013-01-19 07:13:00,
2013-01-19 10:18:00,67.3,51.0,30.20,South,180,2.7,7.2,56,0.00,,,0.00,WUHU216HW,2013-01-19 07:18:00,
2013-01-19 10:23:00,67.3,51.6,30.20,ESE,113,5.8,6.0,57,0.00,,,0.00,WUHU216HW,2013-01-19 07:23:00,
2013-01-19 10:28:00,67.3,51.6,30.20,ESE,113,3.1,6.9,57,0.00,,,0.00,WUHU216HW,2013-01-19 07:28:00,
2013-01-19 10:33:00,67.3,52.0,30.19,East,90,5.4,6.9,58,0.00,,,0.00,WUHU216HW,2013-01-19 07:33:00,
2013-01-19 10:38:00,67.3,51.0,30.19,SE,135,4.3,6.5,56,0.00,,,0.00,WUHU216HW,2013-01-19 07:38:00,
2013-01-19 10:43:00,67.3,51.0,30.19,ESE,113,4.7,7.6,56,0.00,,,0.00,WUHU216HW,2013-01-19 07:43:00,
2013-01-19 10:48:00,67.5,51.2,30.19,ESE,113,4.3,7.6,56,0.00,,,0.00,WUHU216HW,2013-01-19 07:48:00,
2013-01-19 10:53:00,67.7,50.9,30.19,SE,135,4.0,6.5,55,0.00,,,0.00,WUHU216HW,2013-01-19 07:53:00,
2013-01-19 10:58:00,67.7,50.0,30.18,East,90,2.5,5.6,53,0.00,,,0.00,WUHU216HW,2013-01-19 07:58:00,
2013-01-19 11:03:00,67.9,50.6,30.18,SSE,158,5.1,6.0,54,0.00,,,0.00,WUHU216HW,2013-01-19 08:03:00,
2013-01-19 11:08:00,68.0,51.7,30.18,SE,135,3.4,6.0,56,0.00,,,0.00,WUHU216HW,2013-01-19 08:08:00,
2013-01-19 11:13:00,68.0,52.2,30.17,ESE,113,6.5,6.7,57,0.00,,,0.00,WUHU216HW,2013-01-19 08:13:00,
2013-01-19 11:18:00,67.9,51.6,30.17,ESE,113,3.1,6.7,56,0.00,,,0.00,WUHU216HW,2013-01-19 08:18:00,
2013-01-19 11:23:00,68.0,51.2,30.17,East,90,4.3,7.6,55,0.00,,,0.00,WUHU216HW,2013-01-19 08:23:00,
2013-01-19 11:28:00,68.0,51.7,30.17,ESE,113,3.8,8.1,56,0.00,,,0.00,WUHU216HW,2013-01-19 08:28:00,
2013-01-19 11:33:00,67.9,52.0,30.17,SE,135,6.5,8.1,57,0.00,,,0.00,WUHU216HW,2013-01-19 08:33:00,
2013-01-19 11:38:00,67.7,50.9,30.17,ESE,113,5.4,6.9,55,0.00,,,0.00,WUHU216HW,2013-01-19 08:38:00,
2013-01-19 11:43:00,68.0,51.7,30.17,ENE,68,4.0,6.9,56,0.00,,,0.00,WUHU216HW,2013-01-19 08:43:00,
2013-01-19 11:48:00,68.0,51.2,30.16,SE,135,6.0,8.5,55,0.00,,,0.00,WUHU216HW,2013-01-19 08:48:00,
2013-01-19 11:53:00,68.0,51.7,30.16,ENE,68,4.5,8.5,56,0.00,,,0.00,WUHU216HW,2013-01-19 08:53:00,
2013-01-19 11:58:00,68.2,51.4,30.16,SE,135,3.4,7.6,55,0.00,,,0.00,WUHU216HW,2013-01-19 08:58:00,
2013-01-19 12:03:00,68.0,52.2,30.15,ESE,113,6.5,7.8,57,0.00,,,0.00,WUHU216HW,2013-01-19 09:03:00,
2013-01-19 12:08:00,67.9,50.6,30.15,SE,135,5.1,8.1,54,0.00,,,0.00,WUHU216HW,2013-01-19 09:08:00,
2013-01-19 12:13:00,68.0,51.7,30.15,SSE,158,3.1,8.1,56,0.00,,,0.00,WUHU216HW,2013-01-19 09:13:00,
2013-01-19 12:18:00,68.2,51.8,30.14,SSE,158,9.2,9.2,56,0.00,,,0.00,WUHU216HW,2013-01-19 09:18:00,
2013-01-19 12:23:00,68.0,51.7,30.14,ESE,113,8.1,9.2,56,0.00,,,0.00,WUHU216HW,2013-01-19 09:23:00,
2013-01-19 12:28:00,68.0,51.2,30.14,SSE,158,3.4,9.2,55,0.00,,,0.00,WUHU216HW,2013-01-19 09:28:00,
2013-01-19 12:33:00,68.0,51.2,30.14,SSE,158,7.8,8.9,55,0.00,,,0.00,WUHU216HW,2013-01-19 09:33:00,
2013-01-19 12:38:00,68.0,51.2,30.14,ESE,113,7.4,8.5,55,0.00,,,0.00,WUHU216HW,2013-01-19 09:38:00,
2013-01-19 12:43:00,67.9,51.0,30.13,ESE,113,7.6,9.8,55,0.00,,,0.00,WUHU216HW,2013-01-19 09:43:00,
2013-01-19 12:48:00,68.0,51.7,30.13,SE,135,6.9,9.8,56,0.00,,,0.00,WUHU216HW,2013-01-19 09:48:00,
2013-01-19 12:53:00,68.2,50.9,30.13,SE,135,6.3,8.7,54,0.00,,,0.00,WUHU216HW,2013-01-19 09:53:00,
2013-01-19 12:58:00,68.2,50.9,30.13,SE,135,4.9,9.2,54,0.00,,,0.00,WUHU216HW,2013-01-19 09:58:00,
2013-01-19 13:03:00,68.2,51.8,30.13,SE,135,4.3,9.4,56,0.00,,,0.00,WUHU216HW,2013-01-19 10:03:00,
2013-01-19 13:08:00,68.2,51.4,30.13,ESE,113,6.9,9.4,55,0.00,,,0.00,WUHU216HW,2013-01-19 10:08:00,
2013-01-19 13:13:00,68.2,51.4,30.13,SE,135,9.2,9.2,55,0.00,,,0.00,WUHU216HW,2013-01-19 10:13:00,
2013-01-19 13:18:00,68.0,51.2,30.12,ESE,113,5.4,9.4,55,0.00,,,0.00,WUHU216HW,2013-01-19 10:18:00,
2013-01-19 13:23:00,68.4,51.6,30.13,SE,135,5.4,9.4,55,0.00,,,0.00,WUHU216HW,2013-01-19 10:23:00,
2013-01-19 13:28:00,68.8,51.4,30.13,ESE,113,5.4,7.6,54,0.00,,,0.00,WUHU216HW,2013-01-19 10:28:00,
2013-01-19 13:33:00,68.8,51.4,30.12,SSE,158,5.8,6.7,54,0.00,,,0.00,WUHU216HW,2013-01-19 10:33:00,
2013-01-19 13:38:00,68.8,51.0,30.12,NE,45,5.1,7.2,53,0.00,,,0.00,WUHU216HW,2013-01-19 10:38:00,
2013-01-19 13:43:00,69.1,51.2,30.12,East,90,5.4,7.2,53,0.00,,,0.00,WUHU216HW,2013-01-19 10:43:00,
2013-01-19 13:48:00,69.3,51.4,30.12,ESE,113,5.4,7.2,53,0.00,,,0.00,WUHU216HW,2013-01-19 10:48:00,
2013-01-19 13:53:00,69.1,50.8,30.12,ESE,113,6.3,7.4,52,0.00,,,0.00,WUHU216HW,2013-01-19 10:53:00,
2013-01-19 13:59:00,68.9,50.1,30.12,ESE,113,4.7,7.6,51,0.00,,,0.00,WUHU216HW,2013-01-19 10:59:00,
2013-01-19 14:04:00,68.8,50.4,30.12,SE,135,4.7,7.6,52,0.00,,,0.00,WUHU216HW,2013-01-19 11:04:00,
2013-01-19 14:09:00,68.9,51.1,30.12,ENE,68,5.1,7.6,53,0.00,,,0.00,WUHU216HW,2013-01-19 11:09:00,
2013-01-19 14:14:00,68.9,50.6,30.12,SE,135,6.7,7.6,52,0.00,,,0.00,WUHU216HW,2013-01-19 11:14:00,
2013-01-19 14:20:00,69.1,50.8,30.12,East,90,4.5,7.4,52,0.00,,,0.00,WUHU216HW,2013-01-19 11:20:00,
2013-01-19 14:26:00,69.3,50.4,30.12,SE,135,6.0,7.4,51,0.00,,,0.00,WUHU216HW,2013-01-19 11:26:00,
2013-01-19 14:32:00,69.1,50.2,30.12,ESE,113,5.1,6.9,51,0.00,,,0.00,WUHU216HW,2013-01-19 11:32:00,
2013-01-19 14:38:00,69.1,50.8,30.12,SE,135,5.4,7.4,52,0.00,,,0.00,WUHU216HW,2013-01-19 11:38:00,
2013-01-19 14:44:00,68.9,51.1,30.12,SSE,158,3.6,8.3,53,0.00,,,0.00,WUHU216HW,2013-01-19 11:44:00,
2013-01-19 14:50:00,68.9,51.1,30.13,ESE,113,7.6,8.9,53,0.00,,,0.00,WUHU216HW,2013-01-19 11:50:00,
2013-01-19 14:56:00,68.6,50.8,30.12,SE,135,3.4,8.9,53,0.00,,,0.00,WUHU216HW,2013-01-19 11:56:00,
2013-01-19 15:02:00,68.8,51.0,30.12,ESE,113,5.6,7.6,53,0.00,,,0.00,WUHU216HW,2013-01-19 12:02:00,
2013-01-19 15:08:00,68.8,51.0,30.12,ESE,113,7.4,7.6,53,0.00,,,0.00,WUHU216HW,2013-01-19 12:08:00,
2013-01-19 15:14:00,68.8,51.0,30.13,SE,135,4.0,7.4,53,0.00,,,0.00,WUHU216HW,2013-01-19 12:14:00,
2013-01-19 15:20:00,68.8,51.4,30.12,ESE,113,3.1,6.9,54,0.00,,,0.00,WUHU216HW,2013-01-19 12:20:00,
2013-01-19 15:26:00,68.8,51.0,30.13,ENE,68,4.7,6.9,53,0.00,,,0.00,WUHU216HW,2013-01-19 12:26:00,
2013-01-19 15:32:00,68.8,50.4,30.13,East,90,4.9,6.3,52,0.00,,,0.00,WUHU216HW,2013-01-19 12:32:00,
2013-01-19 15:48:00,68.8,50.4,30.13,ESE,113,4.3,6.5,52,0.00,,,0.00,WUHU216HW,2013-01-19 12:48:00,
2013-01-19 15:49:00,68.8,50.4,30.13,ESE,113,5.1,6.5,52,0.00,,,0.00,WUHU216HW,2013-01-19 12:49:00,
2013-01-19 15:54:00,68.6,50.2,30.13,SSE,158,4.9,8.5,52,0.00,,,0.00,WUHU216HW,2013-01-19 12:54:00,
2013-01-19 15:59:00,68.2,50.0,30.13,SE,135,4.7,8.5,52,0.00,,,0.00,WUHU216HW,2013-01-19 12:59:00,
2013-01-19 16:04:00,68.4,50.0,30.13,ESE,113,6.3,6.9,52,0.00,,,0.00,WUHU216HW,2013-01-19 13:04:00,
2013-01-19 16:09:00,68.4,50.0,30.13,SE,135,3.4,6.3,52,0.00,,,0.00,WUHU216HW,2013-01-19 13:09:00,
2013-01-19 16:14:00,68.6,50.8,30.13,South,180,3.8,6.9,53,0.00,,,0.00,WUHU216HW,2013-01-19 13:14:00,
2013-01-19 16:19:00,68.2,50.4,30.13,SE,135,4.3,6.9,53,0.00,,,0.00,WUHU216HW,2013-01-19 13:19:00,
2013-01-19 16:24:00,68.0,50.8,30.13,ENE,68,3.8,6.5,54,0.00,,,0.00,WUHU216HW,2013-01-19 13:24:00,
2013-01-19 16:29:00,68.0,50.8,30.13,SE,135,4.0,5.8,54,0.00,,,0.00,WUHU216HW,2013-01-19 13:29:00,
2013-01-19 16:34:00,68.0,50.8,30.13,SE,135,3.4,5.6,54,0.00,,,0.00,WUHU216HW,2013-01-19 13:34:00,
2013-01-19 16:39:00,67.9,52.5,30.13,SE,135,3.6,6.0,58,0.00,,,0.00,WUHU216HW,2013-01-19 13:39:00,
2013-01-19 16:44:00,67.7,53.3,30.14,SE,135,4.3,6.0,60,0.00,,,0.00,WUHU216HW,2013-01-19 13:44:00,
2013-01-19 16:49:00,67.3,53.0,30.13,SE,135,6.9,6.9,60,0.00,,,0.00,WUHU216HW,2013-01-19 13:49:00,
2013-01-19 16:54:00,67.0,53.6,30.14,SSE,158,5.6,6.9,62,0.00,,,0.00,WUHU216HW,2013-01-19 13:54:00,
2013-01-19 16:59:00,66.6,51.4,30.14,ESE,113,4.7,6.9,58,0.00,,,0.00,WUHU216HW,2013-01-19 13:59:00,
2013-01-19 17:04:00,66.4,50.8,30.14,SSE,158,4.9,6.3,57,0.00,,,0.00,WUHU216HW,2013-01-19 14:04:00,
2013-01-19 17:09:00,66.4,50.8,30.14,SE,135,3.1,6.3,57,0.00,,,0.00,WUHU216HW,2013-01-19 14:09:00,
2013-01-19 17:14:00,66.2,51.0,30.14,ESE,113,3.4,6.0,58,0.00,,,0.00,WUHU216HW,2013-01-19 14:14:00,
2013-01-19 17:19:00,66.2,51.0,30.14,ESE,113,3.4,6.0,58,0.00,,,0.00,WUHU216HW,2013-01-19 14:19:00,
2013-01-19 17:24:00,66.1,50.4,30.14,SSE,158,3.4,6.3,57,0.00,,,0.00,WUHU216HW,2013-01-19 14:24:00,
2013-01-19 17:29:00,65.9,50.2,30.14,SE,135,6.3,6.3,57,0.00,,,0.00,WUHU216HW,2013-01-19 14:29:00,
2013-01-19 17:34:00,65.9,50.2,30.14,SSE,158,4.3,6.3,57,0.00,,,0.00,WUHU216HW,2013-01-19 14:34:00,
2013-01-19 17:39:00,65.9,50.2,30.14,SE,135,4.0,6.7,57,0.00,,,0.00,WUHU216HW,2013-01-19 14:39:00,
2013-01-19 17:44:00,65.7,50.1,30.14,SE,135,5.4,6.9,57,0.00,,,0.00,WUHU216HW,2013-01-19 14:44:00,
2013-01-19 17:49:00,65.7,50.5,30.14,SSE,158,4.7,6.9,58,0.00,,,0.00,WUHU216HW,2013-01-19 14:49:00,
2013-01-19 17:54:00,65.7,50.5,30.15,SE,135,4.0,6.3,58,0.00,,,0.00,WUHU216HW,2013-01-19 14:54:00,
2013-01-19 17:59:00,65.5,50.3,30.15,South,180,2.9,6.3,58,0.00,,,0.00,WUHU216HW,2013-01-19 14:59:00,
2013-01-19 18:04:00,65.5,50.3,30.15,SSE,158,4.0,5.6,58,0.00,,,0.00,WUHU216HW,2013-01-19 15:04:00,
2013-01-19 18:09:00,65.5,50.3,30.15,SE,135,4.9,6.5,58,0.00,,,0.00,WUHU216HW,2013-01-19 15:09:00,
2013-01-19 18:14:00,65.5,50.9,30.14,ESE,113,4.5,6.5,59,0.00,,,0.00,WUHU216HW,2013-01-19 15:14:00,
2013-01-19 18:19:00,65.3,50.7,30.14,SE,135,2.9,5.6,59,0.00,,,0.00,WUHU216HW,2013-01-19 15:19:00,
2013-01-19 18:24:00,65.2,50.5,30.15,SSE,158,3.4,5.6,59,0.00,,,0.00,WUHU216HW,2013-01-19 15:24:00,
2013-01-19 18:29:00,65.2,50.9,30.15,SSE,158,4.7,5.4,60,0.00,,,0.00,WUHU216HW,2013-01-19 15:29:00,
2013-01-19 18:34:00,65.2,51.4,30.15,SE,135,4.7,6.7,61,0.00,,,0.00,WUHU216HW,2013-01-19 15:34:00,
2013-01-19 18:39:00,65.2,52.2,30.15,SE,135,4.3,6.7,63,0.00,,,0.00,WUHU216HW,2013-01-19 15:39:00,
2013-01-19 18:44:00,65.2,53.1,30.15,SSE,158,4.7,6.5,65,0.00,,,0.00,WUHU216HW,2013-01-19 15:44:00,
2013-01-19 18:49:00,65.0,53.7,30.15,SE,135,3.8,6.5,67,0.00,,,0.00,WUHU216HW,2013-01-19 15:49:00,
2013-01-19 18:54:00,64.8,54.0,30.15,SE,135,3.6,6.5,68,0.00,,,0.00,WUHU216HW,2013-01-19 15:54:00,
2013-01-19 18:59:00,64.8,54.5,30.15,SE,135,5.6,6.7,69,0.00,,,0.00,WUHU216HW,2013-01-19 15:59:00,
2013-01-19 19:04:00,64.6,54.3,30.16,SE,135,5.4,6.7,69,0.00,,,0.00,WUHU216HW,2013-01-19 16:04:00,
2013-01-19 19:09:00,64.6,54.3,30.15,SSE,158,5.8,6.5,69,0.00,,,0.00,WUHU216HW,2013-01-19 16:09:00,
2013-01-19 19:14:00,64.4,54.1,30.16,SE,135,4.5,6.5,69,0.00,,,0.00,WUHU216HW,2013-01-19 16:14:00,
2013-01-19 19:19:00,64.4,54.1,30.16,SSE,158,4.5,5.8,69,0.00,,,0.00,WUHU216HW,2013-01-19 16:19:00,
2013-01-19 19:24:00,64.4,54.5,30.16,SE,135,4.7,6.0,70,0.00,,,0.00,WUHU216HW,2013-01-19 16:24:00,
2013-01-19 19:29:00,64.4,54.5,30.15,SE,135,4.0,6.0,70,0.00,,,0.00,WUHU216HW,2013-01-19 16:29:00,
2013-01-19 19:34:00,64.4,54.5,30.15,SE,135,2.9,4.9,70,0.00,,,0.00,WUHU216HW,2013-01-19 16:34:00,
2013-01-19 19:39:00,64.4,54.1,30.15,SSE,158,3.1,4.9,69,0.00,,,0.00,WUHU216HW,2013-01-19 16:39:00,
2013-01-19 19:44:00,64.4,54.1,30.15,SSE,158,4.3,4.9,69,0.00,,,0.00,WUHU216HW,2013-01-19 16:44:00,
2013-01-19 19:49:00,64.3,53.9,30.16,SE,135,3.6,4.7,69,0.00,,,0.00,WUHU216HW,2013-01-19 16:49:00,
2013-01-19 19:54:00,64.3,53.9,30.16,SE,135,4.0,4.7,69,0.00,,,0.00,WUHU216HW,2013-01-19 16:54:00,
2013-01-19 19:59:00,64.3,54.4,30.16,SSE,158,1.8,5.1,70,0.00,,,0.00,WUHU216HW,2013-01-19 16:59:00,
2013-01-19 20:04:00,64.1,54.2,30.16,ESE,113,2.9,5.1,70,0.00,,,0.00,WUHU216HW,2013-01-19 17:04:00,
2013-01-19 20:09:00,64.3,54.4,30.16,SE,135,2.7,4.5,70,0.00,,,0.00,WUHU216HW,2013-01-19 17:09:00,
2013-01-19 20:14:00,64.1,54.2,30.16,SE,135,3.4,4.3,70,0.00,,,0.00,WUHU216HW,2013-01-19 17:14:00,
2013-01-19 20:20:00,64.1,54.2,30.16,SE,135,4.0,4.0,70,0.00,,,0.00,WUHU216HW,2013-01-19 17:20:00,
2013-01-19 20:25:00,64.1,54.2,30.16,SSE,158,2.5,4.3,70,0.00,,,0.00,WUHU216HW,2013-01-19 17:25:00,
2013-01-19 20:30:00,64.1,54.2,30.16,East,90,2.5,4.3,70,0.00,,,0.00,WUHU216HW,2013-01-19 17:30:00,
2013-01-19 20:35:00,64.1,54.2,30.16,SE,135,2.9,4.7,70,0.00,,,0.00,WUHU216HW,2013-01-19 17:35:00,
2013-01-19 20:40:00,63.9,54.0,30.16,SE,135,2.5,4.7,70,0.00,,,0.00,WUHU216HW,2013-01-19 17:40:00,
2013-01-19 20:45:00,63.9,54.0,30.15,SE,135,3.4,4.3,70,0.00,,,0.00,WUHU216HW,2013-01-19 17:45:00,
2013-01-19 20:50:00,63.9,54.0,30.15,ESE,113,3.1,4.0,70,0.00,,,0.00,WUHU216HW,2013-01-19 17:50:00,
2013-01-19 20:55:00,63.7,53.8,30.15,SE,135,4.3,4.7,70,0.00,,,0.00,WUHU216HW,2013-01-19 17:55:00,
2013-01-19 21:00:00,63.7,53.8,30.15,ESE,113,4.0,4.7,70,0.00,,,0.00,WUHU216HW,2013-01-19 18:00:00,
2013-01-19 21:06:00,63.7,54.2,30.15,SE,135,3.8,4.7,71,0.00,,,0.00,WUHU216HW,2013-01-19 18:06:00,
2013-01-19 21:12:00,63.7,53.8,30.15,SE,135,4.5,4.5,70,0.00,,,0.00,WUHU216HW,2013-01-19 18:12:00,
2013-01-19 21:17:00,63.7,53.8,30.15,SSE,158,2.5,4.9,70,0.00,,,0.00,WUHU216HW,2013-01-19 18:17:00,
2013-01-19 21:22:00,63.7,53.8,30.15,SSE,158,2.0,4.9,70,0.00,,,0.00,WUHU216HW,2013-01-19 18:22:00,
2013-01-19 21:27:00,63.7,53.8,30.15,South,180,1.1,3.4,70,0.00,,,0.00,WUHU216HW,2013-01-19 18:27:00,
2013-01-19 21:32:00,63.5,53.6,30.14,SE,135,2.0,2.7,70,0.00,,,0.00,WUHU216HW,2013-01-19 18:32:00,
2013-01-19 21:37:00,63.5,53.6,30.14,SE,135,1.1,2.9,70,0.00,,,0.00,WUHU216HW,2013-01-19 18:37:00,
2013-01-19 21:42:00,63.5,53.6,30.14,SE,135,1.8,3.1,70,0.00,,,0.00,WUHU216HW,2013-01-19 18:42:00,
2013-01-19 21:47:00,63.5,53.6,30.14,ESE,113,1.8,3.1,70,0.00,,,0.00,WUHU216HW,2013-01-19 18:47:00,
2013-01-19 21:53:00,63.4,53.5,30.14,SSE,158,3.8,3.8,70,0.00,,,0.00,WUHU216HW,2013-01-19 18:53:00,
2013-01-19 21:58:00,63.4,53.8,30.14,SE,135,3.6,4.7,71,0.00,,,0.00,WUHU216HW,2013-01-19 18:58:00,
2013-01-19 22:03:00,63.4,53.8,30.14,SSE,158,4.7,4.7,71,0.00,,,0.00,WUHU216HW,2013-01-19 19:03:00,
2013-01-19 22:08:00,63.4,54.2,30.13,SSE,158,3.4,4.7,72,0.00,,,0.00,WUHU216HW,2013-01-19 19:08:00,
2013-01-19 22:13:00,63.4,54.2,30.14,SSE,158,4.3,4.7,72,0.00,,,0.00,WUHU216HW,2013-01-19 19:13:00,
2013-01-19 22:19:00,63.4,54.2,30.13,SE,135,2.7,4.5,72,0.00,,,0.00,WUHU216HW,2013-01-19 19:19:00,
2013-01-19 22:24:00,63.4,54.2,30.13,SE,135,1.6,4.5,72,0.00,,,0.00,WUHU216HW,2013-01-19 19:24:00,
2013-01-19 22:29:00,63.4,54.2,30.13,SE,135,1.6,4.0,72,0.00,,,0.00,WUHU216HW,2013-01-19 19:29:00,
2013-01-19 22:35:00,63.2,53.6,30.13,SSE,158,2.0,2.5,71,0.00,,,0.00,WUHU216HW,2013-01-19 19:35:00,
2013-01-19 22:40:00,63.0,53.5,30.14,SSE,158,2.5,2.5,71,0.00,,,0.00,WUHU216HW,2013-01-19 19:40:00,
2013-01-19 22:45:00,62.8,53.3,30.13,SE,135,0.2,2.5,71,0.00,,,0.00,WUHU216HW,2013-01-19 19:45:00,
2013-01-19 22:50:00,62.8,53.3,30.13,SE,135,0.9,1.8,71,0.00,,,0.00,WUHU216HW,2013-01-19 19:50:00,
2013-01-19 22:55:00,62.6,53.1,30.13,SSE,158,1.3,2.7,71,0.00,,,0.00,WUHU216HW,2013-01-19 19:55:00,
2013-01-19 23:01:00,62.6,53.5,30.13,South,180,0.2,2.7,72,0.00,,,0.00,WUHU216HW,2013-01-19 20:01:00,
2013-01-19 23:06:00,62.6,53.5,30.13,SE,135,1.1,1.8,72,0.00,,,0.00,WUHU216HW,2013-01-19 20:06:00,
2013-01-19 23:11:00,62.5,53.3,30.13,SE,135,0.2,1.1,72,0.00,,,0.00,WUHU216HW,2013-01-19 20:11:00,
2013-01-19 23:17:00,62.5,53.3,30.13,SE,135,0.9,1.1,72,0.00,,,0.00,WUHU216HW,2013-01-19 20:17:00,
2013-01-19 23:22:00,62.3,53.1,30.13,SE,135,1.1,1.8,72,0.00,,,0.00,WUHU216HW,2013-01-19 20:22:00,
2013-01-19 23:27:00,62.3,53.1,30.13,SE,135,1.1,1.8,72,0.00,,,0.00,WUHU216HW,2013-01-19 20:27:00,
2013-01-19 23:32:00,62.3,53.1,30.13,SE,135,1.3,1.8,72,0.00,,,0.00,WUHU216HW,2013-01-19 20:32:00,
2013-01-19 23:37:00,62.1,53.0,30.13,SE,135,0.4,1.8,72,0.00,,,0.00,WUHU216HW,2013-01-19 20:37:00,
2013-01-19 23:43:00,62.1,53.0,30.12,SE,135,0.0,1.6,72,0.00,,,0.00,WUHU216HW,2013-01-19 20:43:00,
2013-01-19 23:48:00,61.9,53.2,30.12,SE,135,0.0,1.1,73,0.00,,,0.00,WUHU216HW,2013-01-19 20:48:00,
2013-01-19 23:53:00,61.9,52.8,30.12,SSE,158,1.3,1.3,72,0.00,,,0.00,WUHU216HW,2013-01-19 20:53:00,
2013-01-19 23:58:00,61.9,52.8,30.12,SSE,158,0.2,1.8,72,0.00,,,0.00,WUHU216HW,2013-01-19 20:58:00,